sensor_id;sensor_type;location;lat;lon;timestamp;P1;durP1;ratioP1;P2;durP2;ratioP2
42430;SDS011;28070;47.462;19.036;2022-07-04T00:01:32;5.05;;;2.97;;
42430;SDS011;28070;47.462;19.036;2022-07-04T00:04:02;6.38;;;2.92;;
42430;SDS011;28070;47.462;19.036;2022-07-04T00:06:30;4.15;;;2.88;;
42430;SDS011;28070;47.462;19.036;2022-07-04T00:08:58;5.25;;;2.55;;
42430;SDS011;28070;47.462;19.036;2022-07-04T00:11:26;5.70;;;2.80;;
42430;SDS011;28070;47.462;19.036;2022-07-04T00:13:55;7.63;;;3.10;;
42430;SDS011;28070;47.462;19.036;2022-07-04T00:16:23;5.57;;;2.90;;
42430;SDS011;28070;47.462;19.036;2022-07-04T00:18:51;4.10;;;3.10;;
42430;SDS011;28070;47.462;19.036;2022-07-04T00:21:21;5.50;;;2.88;;
42430;SDS011;28070;47.462;19.036;2022-07-04T00:23:49;4.78;;;2.95;;
42430;SDS011;28070;47.462;19.036;2022-07-04T00:26:17;6.03;;;3.30;;
42430;SDS011;28070;47.462;19.036;2022-07-04T00:28:45;5.53;;;2.88;;
42430;SDS011;28070;47.462;19.036;2022-07-04T00:31:13;4.47;;;3.13;;
42430;SDS011;28070;47.462;19.036;2022-07-04T00:33:42;5.03;;;3.40;;
42430;SDS011;28070;47.462;19.036;2022-07-04T00:36:10;4.05;;;3.40;;
42430;SDS011;28070;47.462;19.036;2022-07-04T00:38:40;6.00;;;3.30;;
42430;SDS011;28070;47.462;19.036;2022-07-04T00:41:08;3.95;;;2.90;;
42430;SDS011;28070;47.462;19.036;2022-07-04T00:43:36;3.65;;;2.85;;
42430;SDS011;28070;47.462;19.036;2022-07-04T00:46:24;6.07;;;2.95;;
42430;SDS011;28070;47.462;19.036;2022-07-04T00:48:52;5.63;;;3.33;;
42430;SDS011;28070;47.462;19.036;2022-07-04T00:51:21;5.63;;;3.35;;
42430;SDS011;28070;47.462;19.036;2022-07-04T00:53:51;4.18;;;3.08;;
42430;SDS011;28070;47.462;19.036;2022-07-04T00:56:21;5.63;;;2.83;;
42430;SDS011;28070;47.462;19.036;2022-07-04T00:58:49;3.47;;;3.00;;
42430;SDS011;28070;47.462;19.036;2022-07-04T01:01:19;5.60;;;3.10;;
42430;SDS011;28070;47.462;19.036;2022-07-04T01:03:48;6.50;;;3.20;;
42430;SDS011;28070;47.462;19.036;2022-07-04T01:06:16;6.85;;;3.45;;
42430;SDS011;28070;47.462;19.036;2022-07-04T01:08:47;4.90;;;3.22;;
42430;SDS011;28070;47.462;19.036;2022-07-04T01:11:16;7.00;;;3.35;;
42430;SDS011;28070;47.462;19.036;2022-07-04T01:13:45;5.22;;;3.17;;
42430;SDS011;28070;47.462;19.036;2022-07-04T01:16:13;7.45;;;3.75;;
42430;SDS011;28070;47.462;19.036;2022-07-04T01:18:42;7.18;;;3.30;;
42430;SDS011;28070;47.462;19.036;2022-07-04T01:21:11;5.75;;;3.20;;
42430;SDS011;28070;47.462;19.036;2022-07-04T01:23:40;6.07;;;3.20;;
42430;SDS011;28070;47.462;19.036;2022-07-04T01:26:08;8.02;;;3.60;;
42430;SDS011;28070;47.462;19.036;2022-07-04T01:28:37;5.50;;;3.42;;
42430;SDS011;28070;47.462;19.036;2022-07-04T01:31:06;7.63;;;3.40;;
42430;SDS011;28070;47.462;19.036;2022-07-04T01:33:34;5.20;;;3.50;;
42430;SDS011;28070;47.462;19.036;2022-07-04T01:36:02;6.05;;;3.17;;
42430;SDS011;28070;47.462;19.036;2022-07-04T01:38:32;5.20;;;3.50;;
42430;SDS011;28070;47.462;19.036;2022-07-04T01:41:00;4.65;;;3.30;;
42430;SDS011;28070;47.462;19.036;2022-07-04T01:43:28;7.00;;;3.60;;
42430;SDS011;28070;47.462;19.036;2022-07-04T01:45:56;4.88;;;3.40;;
42430;SDS011;28070;47.462;19.036;2022-07-04T01:48:25;5.00;;;3.47;;
42430;SDS011;28070;47.462;19.036;2022-07-04T01:50:53;5.18;;;3.63;;
42430;SDS011;28070;47.462;19.036;2022-07-04T01:53:21;4.22;;;3.35;;
42430;SDS011;28070;47.462;19.036;2022-07-04T01:55:51;6.72;;;3.80;;
42430;SDS011;28070;47.462;19.036;2022-07-04T01:58:19;4.10;;;3.47;;
42430;SDS011;28070;47.462;19.036;2022-07-04T02:00:47;6.05;;;3.55;;
42430;SDS011;28070;47.462;19.036;2022-07-04T02:03:33;5.80;;;3.40;;
42430;SDS011;28070;47.462;19.036;2022-07-04T02:06:01;5.60;;;3.50;;
42430;SDS011;28070;47.462;19.036;2022-07-04T02:08:29;5.47;;;3.65;;
42430;SDS011;28070;47.462;19.036;2022-07-04T02:11:12;5.32;;;3.67;;
42430;SDS011;28070;47.462;19.036;2022-07-04T02:13:41;9.13;;;3.47;;
42430;SDS011;28070;47.462;19.036;2022-07-04T02:16:08;6.85;;;3.50;;
42430;SDS011;28070;47.462;19.036;2022-07-04T02:18:36;5.75;;;3.80;;
42430;SDS011;28070;47.462;19.036;2022-07-04T02:21:04;5.75;;;3.58;;
42430;SDS011;28070;47.462;19.036;2022-07-04T02:23:32;4.30;;;3.83;;
42430;SDS011;28070;47.462;19.036;2022-07-04T02:26:01;6.57;;;3.85;;
42430;SDS011;28070;47.462;19.036;2022-07-04T02:28:30;6.55;;;4.00;;
42430;SDS011;28070;47.462;19.036;2022-07-04T02:30:58;6.68;;;4.00;;
42430;SDS011;28070;47.462;19.036;2022-07-04T02:33:26;6.10;;;3.83;;
42430;SDS011;28070;47.462;19.036;2022-07-04T02:35:55;6.63;;;3.70;;
42430;SDS011;28070;47.462;19.036;2022-07-04T02:38:23;5.68;;;4.28;;
42430;SDS011;28070;47.462;19.036;2022-07-04T02:40:51;12.50;;;4.30;;
42430;SDS011;28070;47.462;19.036;2022-07-04T02:43:19;7.82;;;4.40;;
42430;SDS011;28070;47.462;19.036;2022-07-04T02:45:49;5.47;;;3.92;;
42430;SDS011;28070;47.462;19.036;2022-07-04T02:48:17;5.10;;;3.70;;
42430;SDS011;28070;47.462;19.036;2022-07-04T02:50:45;8.68;;;3.88;;
42430;SDS011;28070;47.462;19.036;2022-07-04T02:53:13;6.20;;;3.88;;
42430;SDS011;28070;47.462;19.036;2022-07-04T02:55:41;5.03;;;3.92;;
42430;SDS011;28070;47.462;19.036;2022-07-04T02:58:10;8.93;;;3.97;;
42430;SDS011;28070;47.462;19.036;2022-07-04T03:00:38;5.63;;;3.88;;
42430;SDS011;28070;47.462;19.036;2022-07-04T03:03:07;5.22;;;3.80;;
42430;SDS011;28070;47.462;19.036;2022-07-04T03:05:36;6.35;;;3.83;;
42430;SDS011;28070;47.462;19.036;2022-07-04T03:08:04;8.75;;;4.05;;
42430;SDS011;28070;47.462;19.036;2022-07-04T03:10:32;4.97;;;4.05;;
42430;SDS011;28070;47.462;19.036;2022-07-04T03:13:01;9.98;;;6.05;;
42430;SDS011;28070;47.462;19.036;2022-07-04T03:15:33;6.63;;;4.30;;
42430;SDS011;28070;47.462;19.036;2022-07-04T03:18:01;6.22;;;3.95;;
42430;SDS011;28070;47.462;19.036;2022-07-04T03:20:31;6.28;;;4.32;;
42430;SDS011;28070;47.462;19.036;2022-07-04T03:22:59;8.13;;;3.97;;
42430;SDS011;28070;47.462;19.036;2022-07-04T03:25:27;6.70;;;3.97;;
42430;SDS011;28070;47.462;19.036;2022-07-04T03:27:56;10.45;;;7.28;;
42430;SDS011;28070;47.462;19.036;2022-07-04T03:30:24;8.43;;;4.60;;
42430;SDS011;28070;47.462;19.036;2022-07-04T03:32:53;11.00;;;4.65;;
42430;SDS011;28070;47.462;19.036;2022-07-04T03:35:21;10.55;;;4.60;;
42430;SDS011;28070;47.462;19.036;2022-07-04T03:37:51;9.45;;;4.95;;
42430;SDS011;28070;47.462;19.036;2022-07-04T03:40:20;7.13;;;4.35;;
42430;SDS011;28070;47.462;19.036;2022-07-04T03:42:49;6.53;;;4.03;;
42430;SDS011;28070;47.462;19.036;2022-07-04T03:45:17;5.78;;;4.20;;
42430;SDS011;28070;47.462;19.036;2022-07-04T03:47:45;11.18;;;4.32;;
42430;SDS011;28070;47.462;19.036;2022-07-04T03:50:14;5.70;;;3.80;;
42430;SDS011;28070;47.462;19.036;2022-07-04T03:52:42;6.40;;;4.30;;
42430;SDS011;28070;47.462;19.036;2022-07-04T03:55:12;6.03;;;4.00;;
42430;SDS011;28070;47.462;19.036;2022-07-04T03:57:40;7.25;;;4.32;;
42430;SDS011;28070;47.462;19.036;2022-07-04T04:00:08;5.93;;;3.80;;
42430;SDS011;28070;47.462;19.036;2022-07-04T04:02:38;7.13;;;4.25;;
42430;SDS011;28070;47.462;19.036;2022-07-04T04:05:13;7.25;;;3.70;;
42430;SDS011;28070;47.462;19.036;2022-07-04T04:07:58;7.68;;;3.85;;
42430;SDS011;28070;47.462;19.036;2022-07-04T04:10:29;5.82;;;3.70;;
42430;SDS011;28070;47.462;19.036;2022-07-04T04:12:58;7.00;;;4.07;;
42430;SDS011;28070;47.462;19.036;2022-07-04T04:15:26;5.72;;;3.83;;
42430;SDS011;28070;47.462;19.036;2022-07-04T04:17:55;5.88;;;3.50;;
42430;SDS011;28070;47.462;19.036;2022-07-04T04:20:23;10.10;;;3.97;;
42430;SDS011;28070;47.462;19.036;2022-07-04T04:22:51;6.65;;;3.58;;
42430;SDS011;28070;47.462;19.036;2022-07-04T04:25:19;6.70;;;3.60;;
42430;SDS011;28070;47.462;19.036;2022-07-04T04:27:50;6.70;;;4.10;;
42430;SDS011;28070;47.462;19.036;2022-07-04T04:30:18;5.70;;;3.55;;
42430;SDS011;28070;47.462;19.036;2022-07-04T04:32:46;9.65;;;3.85;;
42430;SDS011;28070;47.462;19.036;2022-07-04T04:35:15;11.18;;;4.72;;
42430;SDS011;28070;47.462;19.036;2022-07-04T04:37:43;8.73;;;3.60;;
42430;SDS011;28070;47.462;19.036;2022-07-04T04:40:11;6.88;;;3.60;;
42430;SDS011;28070;47.462;19.036;2022-07-04T04:42:39;6.57;;;3.60;;
42430;SDS011;28070;47.462;19.036;2022-07-04T04:45:10;6.47;;;4.00;;
42430;SDS011;28070;47.462;19.036;2022-07-04T04:47:38;6.50;;;3.72;;
42430;SDS011;28070;47.462;19.036;2022-07-04T04:50:07;7.45;;;3.53;;
42430;SDS011;28070;47.462;19.036;2022-07-04T04:52:38;6.65;;;3.80;;
42430;SDS011;28070;47.462;19.036;2022-07-04T04:55:06;4.40;;;3.25;;
42430;SDS011;28070;47.462;19.036;2022-07-04T04:57:35;7.75;;;3.70;;
42430;SDS011;28070;47.462;19.036;2022-07-04T05:00:03;12.32;;;3.80;;
42430;SDS011;28070;47.462;19.036;2022-07-04T05:02:34;6.57;;;3.60;;
42430;SDS011;28070;47.462;19.036;2022-07-04T05:05:02;7.50;;;3.55;;
42430;SDS011;28070;47.462;19.036;2022-07-04T05:07:31;6.97;;;3.65;;
42430;SDS011;28070;47.462;19.036;2022-07-04T05:10:00;5.50;;;3.78;;
42430;SDS011;28070;47.462;19.036;2022-07-04T05:12:28;9.35;;;3.70;;
42430;SDS011;28070;47.462;19.036;2022-07-04T05:14:56;7.10;;;4.00;;
42430;SDS011;28070;47.462;19.036;2022-07-04T05:17:24;10.85;;;4.85;;
42430;SDS011;28070;47.462;19.036;2022-07-04T05:19:54;8.02;;;4.28;;
42430;SDS011;28070;47.462;19.036;2022-07-04T05:22:23;5.22;;;3.60;;
42430;SDS011;28070;47.462;19.036;2022-07-04T05:24:51;9.45;;;4.28;;
42430;SDS011;28070;47.462;19.036;2022-07-04T05:27:19;5.88;;;3.35;;
42430;SDS011;28070;47.462;19.036;2022-07-04T05:29:47;4.63;;;3.80;;
42430;SDS011;28070;47.462;19.036;2022-07-04T05:32:20;6.20;;;3.70;;
42430;SDS011;28070;47.462;19.036;2022-07-04T05:34:48;4.75;;;3.30;;
42430;SDS011;28070;47.462;19.036;2022-07-04T05:37:18;4.35;;;3.08;;
42430;SDS011;28070;47.462;19.036;2022-07-04T05:39:46;4.45;;;3.50;;
42430;SDS011;28070;47.462;19.036;2022-07-04T05:42:15;3.38;;;3.00;;
42430;SDS011;28070;47.462;19.036;2022-07-04T05:44:44;3.83;;;2.60;;
42430;SDS011;28070;47.462;19.036;2022-07-04T05:47:13;6.25;;;3.08;;
42430;SDS011;28070;47.462;19.036;2022-07-04T05:49:41;4.03;;;2.70;;
42430;SDS011;28070;47.462;19.036;2022-07-04T05:52:09;5.80;;;3.45;;
42430;SDS011;28070;47.462;19.036;2022-07-04T05:54:39;4.05;;;3.03;;
42430;SDS011;28070;47.462;19.036;2022-07-04T05:57:07;4.15;;;3.40;;
42430;SDS011;28070;47.462;19.036;2022-07-04T05:59:36;3.53;;;2.85;;
42430;SDS011;28070;47.462;19.036;2022-07-04T06:02:04;4.32;;;2.58;;
42430;SDS011;28070;47.462;19.036;2022-07-04T06:04:32;6.65;;;3.10;;
42430;SDS011;28070;47.462;19.036;2022-07-04T06:07:00;4.60;;;2.47;;
42430;SDS011;28070;47.462;19.036;2022-07-04T06:09:30;3.80;;;3.20;;
42430;SDS011;28070;47.462;19.036;2022-07-04T06:12:00;3.47;;;3.00;;
42430;SDS011;28070;47.462;19.036;2022-07-04T06:14:28;6.05;;;2.50;;
42430;SDS011;28070;47.462;19.036;2022-07-04T06:16:56;3.67;;;2.60;;
42430;SDS011;28070;47.462;19.036;2022-07-04T06:19:25;3.88;;;3.15;;
42430;SDS011;28070;47.462;19.036;2022-07-04T06:21:53;4.38;;;2.53;;
42430;SDS011;28070;47.462;19.036;2022-07-04T06:24:21;10.82;;;2.58;;
42430;SDS011;28070;47.462;19.036;2022-07-04T06:26:49;3.78;;;2.30;;
42430;SDS011;28070;47.462;19.036;2022-07-04T06:29:19;4.97;;;2.20;;
42430;SDS011;28070;47.462;19.036;2022-07-04T06:31:47;3.55;;;2.50;;
42430;SDS011;28070;47.462;19.036;2022-07-04T06:34:16;4.13;;;2.60;;
42430;SDS011;28070;47.462;19.036;2022-07-04T06:37:01;4.18;;;2.30;;
42430;SDS011;28070;47.462;19.036;2022-07-04T06:39:30;3.88;;;2.97;;
42430;SDS011;28070;47.462;19.036;2022-07-04T06:41:58;2.85;;;2.00;;
42430;SDS011;28070;47.462;19.036;2022-07-04T06:44:28;3.33;;;2.00;;
42430;SDS011;28070;47.462;19.036;2022-07-04T06:46:56;3.50;;;2.13;;
42430;SDS011;28070;47.462;19.036;2022-07-04T06:49:24;3.15;;;2.00;;
42430;SDS011;28070;47.462;19.036;2022-07-04T06:51:52;3.22;;;2.10;;
42430;SDS011;28070;47.462;19.036;2022-07-04T06:54:20;5.95;;;2.10;;
42430;SDS011;28070;47.462;19.036;2022-07-04T06:56:49;4.93;;;2.13;;
42430;SDS011;28070;47.462;19.036;2022-07-04T06:59:39;4.50;;;2.55;;
42430;SDS011;28070;47.462;19.036;2022-07-04T07:02:07;5.05;;;3.03;;
42430;SDS011;28070;47.462;19.036;2022-07-04T07:04:36;5.47;;;2.80;;
42430;SDS011;28070;47.462;19.036;2022-07-04T07:07:06;3.38;;;2.03;;
42430;SDS011;28070;47.462;19.036;2022-07-04T07:09:35;3.00;;;2.25;;
42430;SDS011;28070;47.462;19.036;2022-07-04T07:12:03;4.03;;;2.20;;
42430;SDS011;28070;47.462;19.036;2022-07-04T07:14:32;2.65;;;2.10;;
42430;SDS011;28070;47.462;19.036;2022-07-04T07:17:01;3.22;;;2.13;;
42430;SDS011;28070;47.462;19.036;2022-07-04T07:19:30;3.55;;;2.50;;
42430;SDS011;28070;47.462;19.036;2022-07-04T07:21:58;4.22;;;1.83;;
42430;SDS011;28070;47.462;19.036;2022-07-04T07:24:27;2.95;;;2.10;;
42430;SDS011;28070;47.462;19.036;2022-07-04T07:26:57;2.72;;;2.05;;
42430;SDS011;28070;47.462;19.036;2022-07-04T07:29:25;5.72;;;2.10;;
42430;SDS011;28070;47.462;19.036;2022-07-04T07:31:53;4.20;;;1.77;;
42430;SDS011;28070;47.462;19.036;2022-07-04T07:34:23;2.25;;;2.00;;
42430;SDS011;28070;47.462;19.036;2022-07-04T07:36:52;3.33;;;1.80;;
42430;SDS011;28070;47.462;19.036;2022-07-04T07:39:20;2.58;;;1.60;;
42430;SDS011;28070;47.462;19.036;2022-07-04T07:41:48;2.53;;;1.40;;
42430;SDS011;28070;47.462;19.036;2022-07-04T07:44:16;4.72;;;1.30;;
42430;SDS011;28070;47.462;19.036;2022-07-04T07:46:44;2.92;;;1.40;;
42430;SDS011;28070;47.462;19.036;2022-07-04T07:49:13;2.47;;;1.30;;
42430;SDS011;28070;47.462;19.036;2022-07-04T07:51:42;2.10;;;1.30;;
42430;SDS011;28070;47.462;19.036;2022-07-04T07:54:10;1.70;;;1.38;;
42430;SDS011;28070;47.462;19.036;2022-07-04T07:56:43;2.47;;;1.20;;
42430;SDS011;28070;47.462;19.036;2022-07-04T07:59:11;3.53;;;1.92;;
42430;SDS011;28070;47.462;19.036;2022-07-04T08:01:39;2.10;;;1.33;;
42430;SDS011;28070;47.462;19.036;2022-07-04T08:04:07;4.45;;;1.70;;
42430;SDS011;28070;47.462;19.036;2022-07-04T08:06:54;2.05;;;1.23;;
42430;SDS011;28070;47.462;19.036;2022-07-04T08:09:42;3.72;;;1.50;;
42430;SDS011;28070;47.462;19.036;2022-07-04T08:12:11;2.75;;;1.33;;
42430;SDS011;28070;47.462;19.036;2022-07-04T08:14:39;3.15;;;1.13;;
42430;SDS011;28070;47.462;19.036;2022-07-04T08:17:08;1.95;;;1.40;;
42430;SDS011;28070;47.462;19.036;2022-07-04T08:19:38;3.60;;;1.40;;
42430;SDS011;28070;47.462;19.036;2022-07-04T08:22:08;2.95;;;1.50;;
42430;SDS011;28070;47.462;19.036;2022-07-04T08:24:41;3.35;;;1.30;;
42430;SDS011;28070;47.462;19.036;2022-07-04T08:27:10;2.30;;;1.52;;
42430;SDS011;28070;47.462;19.036;2022-07-04T08:29:38;4.32;;;1.15;;
42430;SDS011;28070;47.462;19.036;2022-07-04T08:32:07;6.28;;;3.47;;
42430;SDS011;28070;47.462;19.036;2022-07-04T08:34:36;2.83;;;2.30;;
42430;SDS011;28070;47.462;19.036;2022-07-04T08:37:04;2.05;;;1.50;;
42430;SDS011;28070;47.462;19.036;2022-07-04T08:39:34;5.10;;;1.58;;
42430;SDS011;28070;47.462;19.036;2022-07-04T08:42:04;2.17;;;1.50;;
42430;SDS011;28070;47.462;19.036;2022-07-04T08:44:38;2.47;;;1.58;;
42430;SDS011;28070;47.462;19.036;2022-07-04T08:47:08;5.95;;;1.60;;
42430;SDS011;28070;47.462;19.036;2022-07-04T08:49:42;2.70;;;1.33;;
42430;SDS011;28070;47.462;19.036;2022-07-04T08:52:13;3.70;;;2.00;;
42430;SDS011;28070;47.462;19.036;2022-07-04T08:54:54;4.10;;;1.30;;
42430;SDS011;28070;47.462;19.036;2022-07-04T08:57:44;2.38;;;1.40;;
42430;SDS011;28070;47.462;19.036;2022-07-04T09:00:31;2.92;;;1.60;;
42430;SDS011;28070;47.462;19.036;2022-07-04T09:02:59;2.85;;;1.30;;
42430;SDS011;28070;47.462;19.036;2022-07-04T09:05:30;2.55;;;1.60;;
42430;SDS011;28070;47.462;19.036;2022-07-04T09:07:59;1.50;;;1.20;;
42430;SDS011;28070;47.462;19.036;2022-07-04T09:10:30;2.85;;;1.10;;
42430;SDS011;28070;47.462;19.036;2022-07-04T09:13:00;5.90;;;0.98;;
42430;SDS011;28070;47.462;19.036;2022-07-04T09:15:39;2.20;;;1.30;;
42430;SDS011;28070;47.462;19.036;2022-07-04T09:18:20;2.88;;;1.33;;
42430;SDS011;28070;47.462;19.036;2022-07-04T09:20:49;3.00;;;1.30;;
42430;SDS011;28070;47.462;19.036;2022-07-04T09:23:19;3.42;;;1.17;;
42430;SDS011;28070;47.462;19.036;2022-07-04T09:25:51;4.55;;;1.45;;
42430;SDS011;28070;47.462;19.036;2022-07-04T09:28:34;3.92;;;1.30;;
42430;SDS011;28070;47.462;19.036;2022-07-04T09:31:12;2.47;;;1.35;;
42430;SDS011;28070;47.462;19.036;2022-07-04T09:33:49;2.20;;;1.17;;
42430;SDS011;28070;47.462;19.036;2022-07-04T09:36:19;1.70;;;1.25;;
42430;SDS011;28070;47.462;19.036;2022-07-04T09:39:05;2.90;;;1.40;;
42430;SDS011;28070;47.462;19.036;2022-07-04T09:44:24;2.25;;;1.40;;
42430;SDS011;28070;47.462;19.036;2022-07-04T09:46:55;3.50;;;2.15;;
42430;SDS011;28070;47.462;19.036;2022-07-04T09:49:24;4.68;;;3.88;;
42430;SDS011;28070;47.462;19.036;2022-07-04T09:51:52;3.55;;;1.63;;
42430;SDS011;28070;47.462;19.036;2022-07-04T09:54:22;2.63;;;1.50;;
42430;SDS011;28070;47.462;19.036;2022-07-04T09:56:55;2.60;;;1.85;;
42430;SDS011;28070;47.462;19.036;2022-07-04T09:59:25;5.20;;;3.08;;
42430;SDS011;28070;47.462;19.036;2022-07-04T10:02:05;2.72;;;1.77;;
42430;SDS011;28070;47.462;19.036;2022-07-04T10:04:41;3.13;;;1.60;;
42430;SDS011;28070;47.462;19.036;2022-07-04T10:07:11;2.58;;;1.60;;
42430;SDS011;28070;47.462;19.036;2022-07-04T10:09:39;2.83;;;1.70;;
42430;SDS011;28070;47.462;19.036;2022-07-04T10:12:09;2.85;;;1.80;;
42430;SDS011;28070;47.462;19.036;2022-07-04T10:14:53;2.22;;;1.60;;
42430;SDS011;28070;47.462;19.036;2022-07-04T10:17:22;2.50;;;1.83;;
42430;SDS011;28070;47.462;19.036;2022-07-04T10:19:50;5.85;;;1.90;;
42430;SDS011;28070;47.462;19.036;2022-07-04T10:22:19;5.55;;;1.63;;
42430;SDS011;28070;47.462;19.036;2022-07-04T10:24:50;4.50;;;1.67;;
42430;SDS011;28070;47.462;19.036;2022-07-04T10:27:20;4.30;;;1.67;;
42430;SDS011;28070;47.462;19.036;2022-07-04T10:29:48;4.50;;;1.65;;
42430;SDS011;28070;47.462;19.036;2022-07-04T10:32:17;2.38;;;1.50;;
42430;SDS011;28070;47.462;19.036;2022-07-04T10:34:46;4.50;;;1.30;;
42430;SDS011;28070;47.462;19.036;2022-07-04T10:37:15;2.70;;;1.05;;
42430;SDS011;28070;47.462;19.036;2022-07-04T10:39:44;3.15;;;1.05;;
42430;SDS011;28070;47.462;19.036;2022-07-04T10:42:23;3.03;;;1.23;;
42430;SDS011;28070;47.462;19.036;2022-07-04T10:44:51;2.80;;;1.15;;
42430;SDS011;28070;47.462;19.036;2022-07-04T10:47:23;4.40;;;1.40;;
42430;SDS011;28070;47.462;19.036;2022-07-04T10:49:54;3.35;;;1.40;;
42430;SDS011;28070;47.462;19.036;2022-07-04T10:52:23;3.55;;;1.20;;
42430;SDS011;28070;47.462;19.036;2022-07-04T10:54:51;1.83;;;1.17;;
42430;SDS011;28070;47.462;19.036;2022-07-04T10:57:20;16.52;;;1.40;;
42430;SDS011;28070;47.462;19.036;2022-07-04T11:00:04;5.07;;;1.10;;
42430;SDS011;28070;47.462;19.036;2022-07-04T11:02:35;4.82;;;1.33;;
42430;SDS011;28070;47.462;19.036;2022-07-04T11:05:06;2.03;;;1.10;;
42430;SDS011;28070;47.462;19.036;2022-07-04T11:10:23;3.75;;;2.50;;
42430;SDS011;28070;47.462;19.036;2022-07-04T11:16:04;2.97;;;1.17;;
42430;SDS011;28070;47.462;19.036;2022-07-04T11:18:40;3.42;;;1.00;;
42430;SDS011;28070;47.462;19.036;2022-07-04T11:21:20;2.83;;;1.13;;
42430;SDS011;28070;47.462;19.036;2022-07-04T11:23:52;2.85;;;1.10;;
42430;SDS011;28070;47.462;19.036;2022-07-04T11:26:21;2.65;;;0.98;;
42430;SDS011;28070;47.462;19.036;2022-07-04T11:28:51;4.32;;;1.23;;
42430;SDS011;28070;47.462;19.036;2022-07-04T11:31:21;5.32;;;1.15;;
42430;SDS011;28070;47.462;19.036;2022-07-04T11:34:02;2.35;;;1.00;;
42430;SDS011;28070;47.462;19.036;2022-07-04T11:36:31;2.00;;;1.10;;
42430;SDS011;28070;47.462;19.036;2022-07-04T11:39:00;1.85;;;1.00;;
42430;SDS011;28070;47.462;19.036;2022-07-04T11:41:30;2.65;;;1.00;;
42430;SDS011;28070;47.462;19.036;2022-07-04T11:44:17;2.30;;;1.00;;
42430;SDS011;28070;47.462;19.036;2022-07-04T11:47:07;1.52;;;1.10;;
42430;SDS011;28070;47.462;19.036;2022-07-04T11:49:42;2.03;;;1.02;;
42430;SDS011;28070;47.462;19.036;2022-07-04T11:52:12;4.13;;;1.30;;
42430;SDS011;28070;47.462;19.036;2022-07-04T11:54:42;2.45;;;1.00;;
42430;SDS011;28070;47.462;19.036;2022-07-04T11:57:21;2.75;;;1.25;;
42430;SDS011;28070;47.462;19.036;2022-07-04T11:59:51;2.53;;;1.00;;
42430;SDS011;28070;47.462;19.036;2022-07-04T12:02:25;2.90;;;1.08;;
42430;SDS011;28070;47.462;19.036;2022-07-04T12:04:55;2.65;;;1.30;;
42430;SDS011;28070;47.462;19.036;2022-07-04T12:07:24;5.70;;;1.10;;
42430;SDS011;28070;47.462;19.036;2022-07-04T12:09:54;3.55;;;1.10;;
42430;SDS011;28070;47.462;19.036;2022-07-04T12:12:23;3.45;;;1.05;;
42430;SDS011;28070;47.462;19.036;2022-07-04T12:15:02;4.25;;;1.00;;
42430;SDS011;28070;47.462;19.036;2022-07-04T12:17:34;2.45;;;0.85;;
42430;SDS011;28070;47.462;19.036;2022-07-04T12:20:10;2.17;;;1.10;;
42430;SDS011;28070;47.462;19.036;2022-07-04T12:22:40;3.35;;;1.27;;
42430;SDS011;28070;47.462;19.036;2022-07-04T12:25:19;3.33;;;1.10;;
42430;SDS011;28070;47.462;19.036;2022-07-04T12:27:53;4.20;;;1.00;;
42430;SDS011;28070;47.462;19.036;2022-07-04T12:30:22;5.13;;;0.95;;
42430;SDS011;28070;47.462;19.036;2022-07-04T12:32:53;2.75;;;1.00;;
42430;SDS011;28070;47.462;19.036;2022-07-04T12:35:38;2.13;;;1.10;;
42430;SDS011;28070;47.462;19.036;2022-07-04T12:38:09;1.75;;;0.80;;
42430;SDS011;28070;47.462;19.036;2022-07-04T12:40:49;1.77;;;0.98;;
42430;SDS011;28070;47.462;19.036;2022-07-04T12:43:19;4.95;;;0.90;;
42430;SDS011;28070;47.462;19.036;2022-07-04T12:45:49;2.17;;;0.80;;
42430;SDS011;28070;47.462;19.036;2022-07-04T12:48:20;2.65;;;0.80;;
42430;SDS011;28070;47.462;19.036;2022-07-04T12:50:54;2.67;;;1.00;;
42430;SDS011;28070;47.462;19.036;2022-07-04T12:53:23;2.55;;;0.80;;
42430;SDS011;28070;47.462;19.036;2022-07-04T12:55:51;4.30;;;1.20;;
42430;SDS011;28070;47.462;19.036;2022-07-04T12:58:20;3.97;;;0.80;;
42430;SDS011;28070;47.462;19.036;2022-07-04T13:00:48;4.18;;;1.00;;
42430;SDS011;28070;47.462;19.036;2022-07-04T13:03:16;2.45;;;0.82;;
42430;SDS011;28070;47.462;19.036;2022-07-04T13:05:46;2.03;;;1.00;;
42430;SDS011;28070;47.462;19.036;2022-07-04T13:08:14;5.00;;;0.80;;
42430;SDS011;28070;47.462;19.036;2022-07-04T13:10:43;3.20;;;1.40;;
42430;SDS011;28070;47.462;19.036;2022-07-04T13:13:11;2.00;;;1.00;;
42430;SDS011;28070;47.462;19.036;2022-07-04T13:15:38;1.77;;;0.90;;
42430;SDS011;28070;47.462;19.036;2022-07-04T13:18:06;2.30;;;0.80;;
42430;SDS011;28070;47.462;19.036;2022-07-04T13:20:35;1.58;;;0.90;;
42430;SDS011;28070;47.462;19.036;2022-07-04T13:23:04;1.27;;;0.90;;
42430;SDS011;28070;47.462;19.036;2022-07-04T13:25:43;3.03;;;1.30;;
42430;SDS011;28070;47.462;19.036;2022-07-04T13:28:11;2.63;;;1.00;;
42430;SDS011;28070;47.462;19.036;2022-07-04T13:30:40;5.07;;;1.02;;
42430;SDS011;28070;47.462;19.036;2022-07-04T13:33:08;4.13;;;1.08;;
42430;SDS011;28070;47.462;19.036;2022-07-04T13:35:36;5.00;;;1.10;;
42430;SDS011;28070;47.462;19.036;2022-07-04T13:38:05;3.22;;;1.02;;
42430;SDS011;28070;47.462;19.036;2022-07-04T13:40:34;2.13;;;0.90;;
42430;SDS011;28070;47.462;19.036;2022-07-04T13:43:02;3.28;;;1.10;;
42430;SDS011;28070;47.462;19.036;2022-07-04T13:45:37;2.75;;;1.10;;
42430;SDS011;28070;47.462;19.036;2022-07-04T13:48:07;3.58;;;1.30;;
42430;SDS011;28070;47.462;19.036;2022-07-04T13:50:35;3.10;;;0.98;;
42430;SDS011;28070;47.462;19.036;2022-07-04T13:53:06;1.45;;;0.90;;
42430;SDS011;28070;47.462;19.036;2022-07-04T13:55:35;3.22;;;1.00;;
42430;SDS011;28070;47.462;19.036;2022-07-04T13:58:06;5.45;;;1.23;;
42430;SDS011;28070;47.462;19.036;2022-07-04T14:00:36;4.45;;;1.30;;
42430;SDS011;28070;47.462;19.036;2022-07-04T14:03:07;3.22;;;1.33;;
42430;SDS011;28070;47.462;19.036;2022-07-04T14:05:35;4.18;;;1.40;;
42430;SDS011;28070;47.462;19.036;2022-07-04T14:08:04;2.88;;;1.20;;
42430;SDS011;28070;47.462;19.036;2022-07-04T14:10:34;2.17;;;1.13;;
42430;SDS011;28070;47.462;19.036;2022-07-04T14:13:02;1.90;;;1.20;;
42430;SDS011;28070;47.462;19.036;2022-07-04T14:15:36;1.65;;;1.15;;
42430;SDS011;28070;47.462;19.036;2022-07-04T14:18:04;2.25;;;1.10;;
42430;SDS011;28070;47.462;19.036;2022-07-04T14:20:37;2.45;;;0.98;;
42430;SDS011;28070;47.462;19.036;2022-07-04T14:23:07;4.32;;;1.20;;
42430;SDS011;28070;47.462;19.036;2022-07-04T14:25:35;3.88;;;1.20;;
42430;SDS011;28070;47.462;19.036;2022-07-04T14:28:03;2.50;;;1.20;;
42430;SDS011;28070;47.462;19.036;2022-07-04T14:30:32;5.03;;;1.40;;
42430;SDS011;28070;47.462;19.036;2022-07-04T14:33:00;4.28;;;1.13;;
42430;SDS011;28070;47.462;19.036;2022-07-04T14:35:28;3.30;;;1.48;;
42430;SDS011;28070;47.462;19.036;2022-07-04T14:37:56;3.85;;;1.20;;
42430;SDS011;28070;47.462;19.036;2022-07-04T14:40:26;5.47;;;1.40;;
42430;SDS011;28070;47.462;19.036;2022-07-04T14:42:54;2.78;;;1.10;;
42430;SDS011;28070;47.462;19.036;2022-07-04T14:45:22;7.35;;;3.35;;
42430;SDS011;28070;47.462;19.036;2022-07-04T14:47:50;5.47;;;2.42;;
42430;SDS011;28070;47.462;19.036;2022-07-04T14:50:18;4.20;;;1.80;;
42430;SDS011;28070;47.462;19.036;2022-07-04T14:52:47;4.97;;;1.30;;
42430;SDS011;28070;47.462;19.036;2022-07-04T14:55:15;5.43;;;1.17;;
42430;SDS011;28070;47.462;19.036;2022-07-04T14:57:44;3.38;;;1.20;;
42430;SDS011;28070;47.462;19.036;2022-07-04T15:00:13;3.25;;;1.10;;